createdAt,value
2018-08-09T00:01:49.857Z,19.50
2018-08-09T00:04:18.415Z,19.50
2018-08-09T00:06:46.721Z,19.50
2018-08-09T00:10:18.357Z,19.40
2018-08-09T00:12:46.663Z,19.30
2018-08-09T00:15:14.917Z,19.20
2018-08-09T00:17:43.693Z,19.20
2018-08-09T00:20:12.444Z,19.10
2018-08-09T00:22:40.740Z,19.00
2018-08-09T00:25:09.147Z,19.00
2018-08-09T00:27:37.431Z,19.00
2018-08-09T00:30:06.273Z,19.00
2018-08-09T00:32:34.550Z,19.00
2018-08-09T00:35:02.855Z,19.00
2018-08-09T00:37:31.160Z,18.90
2018-08-09T00:39:59.409Z,18.90
2018-08-09T00:42:27.720Z,18.90
2018-08-09T00:44:56.017Z,18.80
2018-08-09T00:47:24.358Z,18.70
2018-08-09T00:49:52.633Z,18.60
2018-08-09T00:52:20.942Z,18.50
2018-08-09T00:54:49.224Z,18.40
2018-08-09T00:57:17.525Z,18.40
2018-08-09T00:59:45.803Z,18.40
2018-08-09T01:02:14.094Z,18.50
2018-08-09T01:04:42.369Z,18.50
2018-08-09T01:07:10.645Z,18.50
2018-08-09T01:09:38.968Z,18.50
2018-08-09T01:12:07.277Z,18.40
2018-08-09T01:14:35.568Z,18.30
2018-08-09T01:17:03.895Z,18.10
2018-08-09T01:19:32.181Z,18.00
2018-08-09T01:22:00.536Z,17.90
2018-08-09T01:24:28.827Z,17.90
2018-08-09T01:26:57.096Z,17.90
2018-08-09T01:29:25.405Z,17.90
2018-08-09T01:31:53.684Z,17.90
2018-08-09T01:34:21.970Z,18.00
2018-08-09T01:36:50.266Z,18.00
2018-08-09T01:39:18.570Z,18.00
2018-08-09T01:41:58.292Z,18.00
2018-08-09T01:44:26.583Z,18.00
2018-08-09T01:46:54.872Z,18.00
2018-08-09T01:49:23.187Z,18.00
2018-08-09T01:51:51.478Z,18.00
2018-08-09T01:54:19.753Z,17.90
2018-08-09T01:56:48.039Z,17.90
2018-08-09T01:59:16.337Z,17.90
2018-08-09T02:01:44.615Z,17.90
2018-08-09T02:04:13.101Z,17.80
2018-08-09T02:06:41.372Z,17.80
2018-08-09T02:09:11.382Z,17.70
2018-08-09T02:11:39.695Z,17.70
2018-08-09T02:14:07.979Z,17.70
2018-08-09T02:16:36.251Z,17.70
2018-08-09T02:19:04.547Z,17.70
2018-08-09T02:21:32.841Z,17.80
2018-08-09T02:24:01.132Z,17.80
2018-08-09T02:26:29.422Z,17.80
2018-08-09T02:28:57.706Z,17.70
2018-08-09T02:31:25.987Z,17.50
2018-08-09T02:33:54.275Z,17.30
2018-08-09T02:36:22.541Z,17.10
2018-08-09T02:38:50.842Z,17.00
2018-08-09T02:41:19.097Z,16.90
2018-08-09T02:43:47.383Z,16.90
2018-08-09T02:46:15.697Z,17.00
2018-08-09T02:48:43.957Z,16.90
2018-08-09T02:51:12.229Z,16.90
2018-08-09T02:53:40.529Z,16.90
2018-08-09T02:56:08.812Z,16.90
2018-08-09T02:58:37.107Z,16.90
2018-08-09T03:01:05.401Z,16.80
2018-08-09T03:03:33.713Z,16.80
2018-08-09T03:06:02.033Z,16.90
2018-08-09T03:08:30.281Z,16.80
2018-08-09T03:10:58.581Z,16.80
2018-08-09T03:13:26.905Z,16.80
2018-08-09T03:15:55.179Z,16.80
2018-08-09T03:18:23.442Z,16.80
2018-08-09T03:20:51.744Z,16.80
2018-08-09T03:23:20.019Z,16.70
2018-08-09T03:25:48.319Z,16.70
2018-08-09T03:28:16.581Z,16.60
2018-08-09T03:30:44.874Z,16.40
2018-08-09T03:33:13.145Z,16.40
2018-08-09T03:35:41.456Z,16.40
2018-08-09T03:38:09.979Z,16.40
2018-08-09T03:40:38.275Z,16.50
2018-08-09T03:43:06.581Z,16.50
2018-08-09T03:45:34.905Z,16.50
2018-08-09T03:48:03.203Z,16.50
2018-08-09T03:50:31.559Z,16.50
2018-08-09T03:52:59.843Z,16.50
2018-08-09T03:55:28.166Z,16.50
2018-08-09T03:57:56.443Z,16.40
2018-08-09T04:00:24.763Z,16.40
2018-08-09T04:02:53.044Z,16.40
2018-08-09T04:05:21.899Z,16.40
2018-08-09T04:07:50.259Z,16.40
2018-08-09T04:10:18.667Z,16.40
2018-08-09T04:12:46.945Z,16.30
2018-08-09T04:15:15.341Z,16.30
2018-08-09T04:17:43.625Z,16.30
2018-08-09T04:20:11.946Z,16.30
2018-08-09T04:22:40.218Z,16.20
2018-08-09T04:25:08.676Z,16.20
2018-08-09T04:27:36.975Z,16.30
2018-08-09T04:30:05.742Z,16.40
2018-08-09T04:32:34.029Z,16.50
2018-08-09T04:35:02.337Z,16.70
2018-08-09T04:37:30.641Z,16.70
2018-08-09T04:39:58.910Z,16.70
2018-08-09T04:42:27.207Z,16.80
2018-08-09T04:44:55.504Z,16.90
2018-08-09T04:47:23.831Z,17.00
2018-08-09T04:49:52.101Z,17.10
2018-08-09T04:52:20.405Z,17.10
2018-08-09T04:54:48.690Z,17.20
2018-08-09T04:57:16.958Z,17.30
2018-08-09T04:59:45.263Z,17.40
2018-08-09T05:02:13.576Z,17.50
2018-08-09T05:04:41.870Z,17.60
2018-08-09T05:07:10.135Z,17.70
2018-08-09T05:09:38.421Z,17.80
2018-08-09T05:12:06.707Z,18.00
2018-08-09T05:14:34.976Z,18.10
2018-08-09T05:17:03.295Z,18.20
2018-08-09T05:19:31.592Z,18.50
2018-08-09T05:21:59.882Z,18.60
2018-08-09T05:24:28.155Z,18.70
2018-08-09T05:26:56.465Z,18.90
2018-08-09T05:29:24.738Z,19.10
2018-08-09T05:31:53.049Z,19.30
2018-08-09T05:34:21.328Z,19.60
2018-08-09T05:36:49.638Z,19.80
2018-08-09T05:39:17.921Z,20.10
2018-08-09T05:41:46.202Z,20.40
2018-08-09T05:44:14.482Z,20.80
2018-08-09T05:46:42.779Z,21.20
2018-08-09T05:49:11.056Z,21.50
2018-08-09T05:51:39.334Z,21.90
2018-08-09T05:54:07.623Z,22.30
2018-08-09T05:56:35.967Z,22.60
2018-08-09T05:59:04.282Z,22.80
2018-08-09T06:01:32.575Z,23.00
2018-08-09T06:04:00.854Z,23.20
2018-08-09T06:06:29.185Z,23.40
2018-08-09T06:08:57.479Z,23.70
2018-08-09T06:11:25.799Z,24.10
2018-08-09T06:13:54.135Z,24.60
2018-08-09T06:16:22.425Z,24.80
2018-08-09T06:18:50.778Z,24.90
2018-08-09T06:21:19.063Z,25.10
2018-08-09T06:23:47.380Z,25.40
2018-08-09T06:26:15.819Z,25.90
2018-08-09T06:28:44.149Z,26.80
2018-08-09T06:31:12.419Z,27.80
2018-08-09T06:33:40.716Z,28.40
2018-08-09T06:36:09.010Z,29.20
2018-08-09T06:38:37.300Z,30.20
2018-08-09T06:41:05.657Z,30.80
2018-08-09T06:43:33.934Z,31.50
2018-08-09T06:46:02.217Z,32.40
2018-08-09T06:48:30.535Z,33.10
2018-08-09T06:50:58.834Z,33.50
2018-08-09T06:53:27.260Z,33.80
2018-08-09T06:55:55.603Z,34.00
2018-08-09T06:58:23.875Z,34.40
2018-08-09T07:00:52.199Z,34.70
2018-08-09T07:03:20.501Z,35.10
2018-08-09T07:05:48.807Z,35.30
2018-08-09T07:08:17.087Z,35.40
2018-08-09T07:10:45.403Z,35.80
2018-08-09T07:13:13.682Z,35.90
2018-08-09T07:15:41.975Z,36.30
2018-08-09T07:18:10.313Z,36.60
2018-08-09T07:20:38.576Z,36.90
2018-08-09T07:23:06.872Z,37.40
2018-08-09T07:25:35.192Z,37.20
2018-08-09T07:28:03.511Z,37.00
2018-08-09T07:30:31.794Z,36.80
2018-08-09T07:33:00.154Z,37.20
2018-08-09T07:35:28.445Z,37.70
2018-08-09T07:37:56.775Z,37.70
2018-08-09T07:40:25.069Z,37.70
2018-08-09T07:42:53.362Z,38.00
2018-08-09T07:45:21.677Z,37.90
2018-08-09T07:47:49.989Z,37.80
2018-08-09T07:50:18.272Z,38.00
2018-08-09T07:52:46.581Z,38.40
2018-08-09T07:55:14.858Z,38.60
2018-08-09T07:57:43.162Z,38.70
2018-08-09T08:00:12.429Z,38.60
2018-08-09T08:02:41.125Z,38.40
2018-08-09T08:05:09.500Z,38.60
2018-08-09T08:07:38.192Z,38.90
2018-08-09T08:10:07.561Z,38.80
2018-08-09T08:12:35.905Z,38.80
2018-08-09T08:15:05.741Z,38.30
2018-08-09T08:17:34.159Z,37.60
2018-08-09T08:20:02.487Z,36.60
2018-08-09T08:22:30.837Z,36.10
2018-08-09T08:24:59.123Z,36.20
2018-08-09T08:27:27.441Z,36.80
2018-08-09T08:29:55.746Z,37.50
2018-08-09T08:32:24.042Z,38.40
2018-08-09T08:34:52.332Z,39.10
2018-08-09T08:37:20.626Z,39.30
2018-08-09T08:39:48.911Z,39.50
2018-08-09T08:42:17.198Z,39.10
2018-08-09T08:44:45.522Z,39.00
2018-08-09T08:47:14.083Z,38.40
2018-08-09T08:49:42.355Z,38.30
2018-08-09T08:52:10.658Z,38.20
2018-08-09T08:54:38.935Z,38.20
2018-08-09T08:57:07.262Z,38.10
2018-08-09T08:59:35.541Z,38.00
2018-08-09T09:02:03.865Z,37.60
2018-08-09T09:04:32.186Z,36.40
2018-08-09T09:07:00.570Z,35.20
2018-08-09T09:09:28.818Z,34.40
2018-08-09T09:11:57.224Z,33.40
2018-08-09T09:14:25.565Z,32.40
2018-08-09T09:16:53.879Z,32.00
2018-08-09T09:19:22.191Z,31.50
2018-08-09T09:21:50.454Z,31.30
2018-08-09T09:24:18.777Z,31.20
2018-08-09T09:29:15.355Z,30.50
2018-08-09T09:31:43.627Z,30.30
2018-08-09T09:34:11.921Z,30.50
2018-08-09T09:36:40.229Z,30.50
2018-08-09T09:39:09.617Z,30.40
2018-08-09T09:41:38.170Z,30.40
2018-08-09T09:44:06.582Z,30.50
2018-08-09T09:46:34.863Z,30.70
2018-08-09T09:49:03.235Z,30.70
2018-08-09T09:51:31.567Z,30.70
2018-08-09T09:54:00.062Z,30.90
2018-08-09T09:56:28.359Z,31.00
2018-08-09T09:58:56.637Z,30.80
2018-08-09T10:01:30.200Z,30.70
2018-08-09T10:03:58.491Z,30.50
2018-08-09T10:06:26.827Z,30.50
2018-08-09T10:08:55.124Z,30.40
2018-08-09T10:11:23.376Z,30.50
2018-08-09T10:13:51.696Z,30.40
2018-08-09T10:16:19.963Z,30.50
2018-08-09T10:18:48.296Z,30.60
2018-08-09T10:21:16.585Z,30.60
2018-08-09T10:23:44.881Z,30.60
2018-08-09T10:26:13.290Z,30.60
2018-08-09T10:28:41.570Z,30.70
2018-08-09T10:31:10.228Z,30.80
2018-08-09T10:33:38.753Z,31.00
2018-08-09T10:36:07.053Z,31.00
2018-08-09T10:38:35.327Z,30.80
2018-08-09T10:41:03.617Z,30.90
2018-08-09T10:43:31.911Z,31.10
2018-08-09T10:46:00.180Z,31.10
2018-08-09T10:48:28.473Z,31.10
2018-08-09T10:50:56.788Z,31.10
2018-08-09T10:53:25.082Z,31.00
2018-08-09T10:55:53.358Z,31.00
2018-08-09T10:58:21.828Z,30.90
2018-08-09T11:00:50.093Z,31.00
2018-08-09T11:03:18.436Z,31.00
2018-08-09T11:05:46.735Z,31.10
2018-08-09T11:08:15.035Z,31.10
2018-08-09T11:10:43.307Z,31.20
2018-08-09T11:13:11.809Z,31.30
2018-08-09T11:15:40.081Z,31.20
2018-08-09T11:18:08.362Z,31.10
2018-08-09T11:20:36.697Z,31.00
2018-08-09T11:23:05.285Z,31.00
2018-08-09T11:25:33.583Z,30.90
2018-08-09T11:28:01.872Z,30.80
2018-08-09T11:30:30.155Z,30.70
2018-08-09T11:32:58.445Z,31.00
2018-08-09T11:35:26.736Z,31.10
2018-08-09T11:37:55.045Z,31.00
2018-08-09T11:40:23.336Z,31.20
2018-08-09T11:42:51.634Z,31.30
2018-08-09T11:45:20.006Z,31.50
2018-08-09T11:47:48.282Z,31.70
2018-08-09T11:50:16.578Z,31.60
2018-08-09T11:52:44.844Z,31.50
2018-08-09T11:55:13.157Z,31.40
2018-08-09T11:57:41.426Z,31.50
2018-08-09T12:00:09.742Z,31.60
2018-08-09T12:02:38.008Z,31.60
2018-08-09T12:05:06.357Z,31.60
2018-08-09T12:07:34.647Z,31.40
2018-08-09T12:10:03.025Z,31.40
2018-08-09T12:12:31.320Z,31.30
2018-08-09T12:14:59.619Z,31.30
2018-08-09T12:17:27.997Z,31.20
2018-08-09T12:19:56.315Z,31.30
2018-08-09T12:22:24.653Z,31.50
2018-08-09T12:24:52.976Z,31.60
2018-08-09T12:27:21.291Z,31.60
2018-08-09T12:29:49.621Z,31.70
2018-08-09T12:32:17.932Z,31.60
2018-08-09T12:34:46.333Z,31.50
2018-08-09T12:37:14.665Z,31.80
2018-08-09T12:39:43.055Z,31.80
2018-08-09T12:42:11.384Z,31.80
2018-08-09T12:44:39.746Z,31.90
2018-08-09T12:47:08.108Z,31.90
2018-08-09T12:49:36.423Z,31.80
2018-08-09T12:52:04.768Z,31.80
2018-08-09T12:54:33.058Z,32.00
2018-08-09T12:57:01.357Z,32.00
2018-08-09T12:59:29.760Z,32.10
2018-08-09T13:01:58.052Z,32.20
2018-08-09T13:04:26.611Z,32.20
2018-08-09T13:06:55.023Z,32.40
2018-08-09T13:09:23.327Z,32.40
2018-08-09T13:11:51.604Z,32.30
2018-08-09T13:14:20.016Z,32.40
2018-08-09T13:16:48.401Z,32.40
2018-08-09T13:19:16.752Z,32.40
2018-08-09T13:21:45.033Z,32.40
2018-08-09T13:24:13.353Z,32.30
2018-08-09T13:26:41.681Z,32.30
2018-08-09T13:29:10.080Z,32.30
2018-08-09T13:31:38.483Z,32.20
2018-08-09T13:34:07.094Z,32.10
2018-08-09T13:36:35.463Z,32.00
2018-08-09T13:39:06.224Z,31.90
2018-08-09T13:41:34.526Z,31.80
2018-08-09T13:44:02.865Z,31.80
2018-08-09T13:46:31.223Z,31.80
2018-08-09T13:48:59.477Z,32.00
2018-08-09T13:51:27.858Z,32.10
2018-08-09T13:53:56.203Z,32.00
2018-08-09T13:56:24.511Z,32.00
2018-08-09T13:58:52.808Z,31.80
2018-08-09T14:01:21.089Z,31.90
2018-08-09T14:03:49.356Z,31.90
2018-08-09T14:06:17.725Z,31.80
2018-08-09T14:08:46.040Z,31.80
2018-08-09T14:11:14.399Z,31.80
2018-08-09T14:13:42.674Z,31.70
2018-08-09T14:16:11.036Z,31.70
2018-08-09T14:18:39.867Z,31.70
2018-08-09T14:21:08.182Z,31.80
2018-08-09T14:23:36.590Z,31.80
2018-08-09T14:26:05.016Z,31.70
2018-08-09T14:28:33.611Z,31.60
2018-08-09T14:31:01.920Z,31.60
2018-08-09T14:33:30.229Z,31.50
2018-08-09T14:35:58.542Z,31.30
2018-08-09T14:38:26.846Z,31.20
2018-08-09T14:40:55.121Z,31.30
2018-08-09T14:43:23.432Z,31.30
2018-08-09T14:45:51.721Z,31.60
2018-08-09T14:48:20.029Z,31.90
2018-08-09T14:50:48.330Z,32.10
2018-08-09T14:53:16.699Z,32.30
2018-08-09T14:55:45.272Z,32.40
2018-08-09T14:58:13.677Z,32.50
2018-08-09T15:00:42.049Z,32.60
2018-08-09T15:03:10.379Z,32.60
2018-08-09T15:05:38.678Z,32.50
2018-08-09T15:08:07.095Z,32.40
2018-08-09T15:10:35.392Z,32.30
2018-08-09T15:13:03.690Z,32.10
2018-08-09T15:15:32.039Z,32.30
2018-08-09T15:18:00.332Z,32.40
2018-08-09T15:20:28.619Z,32.40
2018-08-09T15:22:57.003Z,32.20
2018-08-09T15:25:25.255Z,31.90
2018-08-09T15:27:53.589Z,31.70
2018-08-09T15:30:21.867Z,31.50
2018-08-09T15:32:50.203Z,31.40
2018-08-09T15:35:18.601Z,31.20
2018-08-09T15:37:46.878Z,31.10
2018-08-09T15:40:15.579Z,31.00
2018-08-09T15:42:43.863Z,30.90
2018-08-09T15:45:14.787Z,30.90
2018-08-09T15:47:43.491Z,31.00
2018-08-09T15:50:17.040Z,31.00
2018-08-09T15:52:45.393Z,31.30
2018-08-09T15:55:14.857Z,31.50
2018-08-09T15:57:43.197Z,31.70
2018-08-09T16:00:20.195Z,31.80
2018-08-09T16:02:48.503Z,31.70
2018-08-09T16:05:16.898Z,31.70
2018-08-09T16:07:45.444Z,31.70
2018-08-09T16:10:14.924Z,31.60
2018-08-09T16:12:43.214Z,31.50
2018-08-09T16:15:14.834Z,31.40
2018-08-09T16:17:43.818Z,31.30
2018-08-09T16:20:12.392Z,31.30
2018-08-09T16:22:41.535Z,31.30
2018-08-09T16:25:12.304Z,31.40
2018-08-09T16:27:40.663Z,31.40
2018-08-09T16:30:18.593Z,31.40
2018-08-09T16:32:46.974Z,31.30
2018-08-09T16:35:15.350Z,31.30
2018-08-09T16:37:44.324Z,31.10
2018-08-09T16:40:21.995Z,31.00
2018-08-09T16:42:50.367Z,30.90
2018-08-09T16:45:19.674Z,30.80
2018-08-09T16:47:48.633Z,30.80
2018-08-09T16:50:19.110Z,30.70
2018-08-09T16:52:48.399Z,30.60
2018-08-09T16:55:17.852Z,30.60
2018-08-09T16:57:46.163Z,30.40
2018-08-09T17:00:17.209Z,30.40
2018-08-09T17:02:45.534Z,30.30
2018-08-09T17:05:16.854Z,30.20
2018-08-09T17:07:45.399Z,30.10
2018-08-09T17:10:15.788Z,30.00
2018-08-09T17:12:44.059Z,29.80
2018-08-09T17:15:14.430Z,29.40
2018-08-09T17:17:42.741Z,28.60
2018-08-09T17:20:13.854Z,27.90
2018-08-09T17:22:42.645Z,27.30
2018-08-09T17:25:11.989Z,27.00
2018-08-09T17:27:41.650Z,26.70
2018-08-09T17:30:10.774Z,26.50
2018-08-09T17:32:39.195Z,26.30
2018-08-09T17:35:08.048Z,26.10
2018-08-09T17:37:36.495Z,25.90
2018-08-09T17:40:06.357Z,25.40
2018-08-09T17:42:35.456Z,24.90
2018-08-09T17:45:04.601Z,24.50
2018-08-09T17:47:32.923Z,24.20
2018-08-09T17:50:02.024Z,24.00
2018-08-09T17:52:30.412Z,23.80
2018-08-09T17:54:58.774Z,23.90
2018-08-09T17:57:27.116Z,23.90
2018-08-09T17:59:55.495Z,23.60
2018-08-09T18:02:23.795Z,23.60
2018-08-09T18:04:52.103Z,23.60
2018-08-09T18:07:20.459Z,23.60
2018-08-09T18:09:48.825Z,23.60
2018-08-09T18:12:17.277Z,23.60
2018-08-09T18:14:46.193Z,23.60
2018-08-09T18:17:14.895Z,23.70
2018-08-09T18:19:43.271Z,23.70
2018-08-09T18:22:12.324Z,23.70
2018-08-09T18:24:40.736Z,23.70
2018-08-09T18:27:09.137Z,23.70
2018-08-09T18:29:37.501Z,23.60
2018-08-09T18:32:05.843Z,23.60
2018-08-09T18:34:34.168Z,23.60
2018-08-09T18:37:02.542Z,23.60
2018-08-09T18:39:30.871Z,23.60
2018-08-09T18:41:59.275Z,23.50
2018-08-09T18:44:27.655Z,23.50
2018-08-09T18:46:56.016Z,23.40
2018-08-09T18:49:24.311Z,23.40
2018-08-09T18:51:52.647Z,23.40
2018-08-09T18:54:21.142Z,23.30
2018-08-09T18:56:49.461Z,23.30
2018-08-09T18:59:17.874Z,23.20
2018-08-09T19:01:46.201Z,23.10
2018-08-09T19:04:14.495Z,23.00
2018-08-09T19:06:42.785Z,22.90
2018-08-09T19:09:11.879Z,22.80
2018-08-09T19:11:40.226Z,22.80
2018-08-09T19:14:08.572Z,22.70
2018-08-09T19:16:36.861Z,22.70
2018-08-09T19:19:05.227Z,22.60
2018-08-09T19:21:33.559Z,22.60
2018-08-09T19:24:01.864Z,22.50
2018-08-09T19:26:30.262Z,22.50
2018-08-09T19:28:58.594Z,22.50
2018-08-09T19:31:26.890Z,22.50
2018-08-09T19:33:55.216Z,22.40
2018-08-09T19:36:23.612Z,22.40
2018-08-09T19:38:51.979Z,22.30
2018-08-09T19:41:20.322Z,22.20
2018-08-09T19:43:48.604Z,22.20
2018-08-09T19:46:16.882Z,22.10
2018-08-09T19:48:45.168Z,22.20
2018-08-09T19:51:13.531Z,22.20
2018-08-09T19:53:41.806Z,22.10
2018-08-09T19:56:10.276Z,22.20
2018-08-09T19:58:38.643Z,22.20
2018-08-09T20:01:06.987Z,22.20
2018-08-09T20:03:35.280Z,22.20
2018-08-09T20:06:03.626Z,22.30
2018-08-09T20:08:32.060Z,22.30
2018-08-09T20:11:00.449Z,22.30
2018-08-09T20:13:28.807Z,22.20
2018-08-09T20:15:57.153Z,22.10
2018-08-09T20:18:25.474Z,22.10
2018-08-09T20:20:53.849Z,22.00
2018-08-09T20:23:22.121Z,22.00
2018-08-09T20:25:50.419Z,21.90
2018-08-09T20:28:18.803Z,21.80
2018-08-09T20:30:47.166Z,21.80
2018-08-09T20:33:15.462Z,21.80
2018-08-09T20:35:43.750Z,21.80
2018-08-09T20:38:12.084Z,21.80
2018-08-09T20:40:40.358Z,21.70
2018-08-09T20:43:08.647Z,21.70
2018-08-09T20:45:36.968Z,21.60
2018-08-09T20:48:05.323Z,21.60
2018-08-09T20:50:33.699Z,21.50
2018-08-09T20:53:01.987Z,21.50
2018-08-09T20:55:30.289Z,21.40
2018-08-09T20:57:58.581Z,21.40
2018-08-09T21:00:28.516Z,21.40
2018-08-09T21:02:58.034Z,21.40
2018-08-09T21:05:28.767Z,21.30
2018-08-09T21:07:57.416Z,21.20
2018-08-09T21:10:26.116Z,21.30
2018-08-09T21:12:54.517Z,21.20
2018-08-09T21:15:22.951Z,21.20
2018-08-09T21:17:51.179Z,21.20
2018-08-09T21:20:19.783Z,21.20
2018-08-09T21:22:48.945Z,21.10
2018-08-09T21:25:17.454Z,21.10
2018-08-09T21:27:46.309Z,21.00
2018-08-09T21:30:20.599Z,21.00
2018-08-09T21:32:49.387Z,21.00
2018-08-09T21:35:17.706Z,20.90
2018-08-09T21:37:46.247Z,20.90
2018-08-09T21:40:15.114Z,20.90
2018-08-09T21:42:43.412Z,20.80
2018-08-09T21:45:14.125Z,20.80
2018-08-09T21:47:42.449Z,20.80
2018-08-09T21:50:13.809Z,20.80
2018-08-09T21:52:42.324Z,20.80
2018-08-09T21:55:11.372Z,20.80
2018-08-09T21:57:39.707Z,20.80
2018-08-09T22:00:25.015Z,20.70
2018-08-09T22:02:53.313Z,20.70
2018-08-09T22:05:27.045Z,20.70
2018-08-09T22:08:00.831Z,20.70
2018-08-09T22:10:34.561Z,20.70
2018-08-09T22:13:08.277Z,20.70
2018-08-09T22:15:42.055Z,20.70
2018-08-09T22:18:15.775Z,20.70
2018-08-09T22:20:49.611Z,20.70
2018-08-09T22:23:17.842Z,20.80
2018-08-09T22:25:46.204Z,20.80
2018-08-09T22:28:39.221Z,20.70
2018-08-09T22:31:07.526Z,20.70
2018-08-09T22:33:35.827Z,20.70
2018-08-09T22:36:04.171Z,20.70
2018-08-09T22:38:32.426Z,20.70
2018-08-09T22:41:01.748Z,20.60
2018-08-09T22:43:30.021Z,20.60
2018-08-09T22:45:58.322Z,20.60
2018-08-09T22:48:26.890Z,20.60
2018-08-09T22:50:55.273Z,20.60
2018-08-09T22:53:23.638Z,20.50
2018-08-09T22:55:51.937Z,20.50
2018-08-09T22:58:20.345Z,20.50
2018-08-09T23:00:48.663Z,20.50
2018-08-09T23:03:17.009Z,20.40
2018-08-09T23:05:45.291Z,20.40
2018-08-09T23:08:14.634Z,20.50
2018-08-09T23:10:43.707Z,20.40
2018-08-09T23:13:13.041Z,20.40
2018-08-09T23:15:42.605Z,20.40
2018-08-09T23:18:10.921Z,20.40
2018-08-09T23:20:39.673Z,20.40
2018-08-09T23:23:07.984Z,20.40
2018-08-09T23:25:36.305Z,20.40
2018-08-09T23:28:04.660Z,20.40
2018-08-09T23:30:33.008Z,20.40
2018-08-09T23:33:01.307Z,20.50
2018-08-09T23:35:29.648Z,20.50
2018-08-09T23:37:58.005Z,20.50
2018-08-09T23:40:26.367Z,20.50
2018-08-09T23:42:54.692Z,20.60
2018-08-09T23:45:22.974Z,20.60
2018-08-09T23:47:51.271Z,20.60
2018-08-09T23:50:19.556Z,20.60
2018-08-09T23:52:47.869Z,20.60
2018-08-09T23:55:17.190Z,20.60
2018-08-09T23:57:45.554Z,20.60
